KRHI/RHI METAR and TAF weather

Enter ICAO airport designator
Station Type Date Time Source
KRHI METAR 2020/06/03 14:53 UTC NOAA

KRHI 031453Z AUTO 26007KT 10SM CLR 23/13 A2984 RMK AO2 SLP097 T02330128 58003


Station Type Date Time Source
KRHI Decoded METAR 2020/06/03 14:53 UTC NOAA

RHINELANDER-ONEIDA CO AIRPORT , WI, United States (KRHI) 45-38N 89-29W 485M
Jun 03, 2020 - 10:53 AM EDT / 2020.06.03 1453 UTC
Wind: from the W (260 degrees) at 8 MPH (7 KT):0
Visibility: 10 mile(s):0
Sky conditions: clear
Temperature: 73.9 F (23.3 C)
Dew Point: 55.0 F (12.8 C)
Relative Humidity: 51%
Pressure (altimeter): 29.84 in. Hg (1010 hPa)
Pressure tendency: 0.01 inches (0.3 hPa) lower than three hours ago
ob: KRHI 031453Z AUTO 26007KT 10SM CLR 23/13 A2984 RMK AO2 SLP097 T02330128 58003
cycle: 15

Station Type Date Time Source
KRHI TAF 2020/06/03 12:22 UTC NOAA

TAF KRHI 031120Z 0312/0412 28005KT P6SM SKC
FM031800 30009G16KT P6SM SCT070
FM040100 VRB02KT P6SM SKC
TEMPO 0408/0412 1 1/2SM BR SCT005

Example: see airport list